Time;durP1;ratioP1;P1;durP2;ratioP2;P2;SDS_P1;SDS_P2;PMS_P1;PMS_P2;Temp;Humidity;BMP_temperature;BMP_pressure;BME280_temperature;BME280_humidity;BME280_pressure;Samples;Min_cycle;Max_cycle;Signal;HPM_P1;HPM_P2
2023/08/14 00:26:03;;;;;;;0.20;0.10;;;;;;;;;;4908689;29;20048;-83
2023/08/14 03:18:11;;;;;;;0.30;0.10;;;;;;;;;;2651884;23;20041;-79
2023/08/14 03:20:37;;;;;;;0.20;0.10;;;;;;;;;;5034176;28;20040;-79
2023/08/14 03:23:03;;;;;;;0.25;0.10;;;;;;;;;;5050750;28;20316;-79
2023/08/14 03:25:29;;;;;;;0.20;0.00;;;;;;;;;;5026672;28;20040;-79
2023/08/14 03:27:55;;;;;;;0.28;0.25;;;;;;;;;;5035002;28;20037;-79
2023/08/14 03:30:21;;;;;;;1.08;0.75;;;;;;;;;;5041352;28;20139;-79
2023/08/14 03:32:47;;;;;;;0.85;0.57;;;;;;;;;;5050349;28;20059;-79
2023/08/14 03:35:13;;;;;;;0.25;0.10;;;;;;;;;;5044100;28;20033;-79
2023/08/14 03:37:40;;;;;;;0.20;0.10;;;;;;;;;;5042767;28;20114;-79
2023/08/14 03:40:07;;;;;;;1.48;0.43;;;;;;;;;;5027489;28;20115;-80
2023/08/14 03:42:33;;;;;;;0.20;0.20;;;;;;;;;;5021398;28;20044;-80
2023/08/14 03:44:59;;;;;;;0.20;0.10;;;;;;;;;;5026021;28;20037;-82
2023/08/14 03:47:26;;;;;;;0.22;0.10;;;;;;;;;;5021704;28;20048;-80
2023/08/14 03:49:52;;;;;;;0.20;0.10;;;;;;;;;;5035955;28;20445;-81
2023/08/14 03:52:18;;;;;;;0.25;0.20;;;;;;;;;;5034510;28;20055;-82
2023/08/14 03:54:44;;;;;;;0.20;0.15;;;;;;;;;;5036527;28;20051;-81
2023/08/14 03:57:10;;;;;;;0.40;0.30;;;;;;;;;;5034480;28;20535;-81
2023/08/14 03:59:36;;;;;;;0.20;0.10;;;;;;;;;;5037293;28;20045;-81
2023/08/14 04:02:02;;;;;;;0.20;0.10;;;;;;;;;;5016017;28;20041;-81
2023/08/14 04:04:28;;;;;;;1.20;0.30;;;;;;;;;;5029676;28;20055;-80
2023/08/14 04:06:54;;;;;;;0.20;0.10;;;;;;;;;;5039481;28;20053;-81
2023/08/14 04:09:20;;;;;;;0.20;0.10;;;;;;;;;;5037943;28;20406;-80
2023/08/14 04:11:46;;;;;;;0.20;0.13;;;;;;;;;;5029641;28;20040;-81
2023/08/14 04:14:12;;;;;;;0.30;0.20;;;;;;;;;;5028322;28;20415;-81
2023/08/14 04:16:41;;;;;;;0.20;0.10;;;;;;;;;;5035674;28;20048;-81
2023/08/14 04:19:08;;;;;;;0.20;0.10;;;;;;;;;;5033786;28;20396;-81
2023/08/14 04:21:35;;;;;;;0.30;0.30;;;;;;;;;;5039128;28;20040;-81
2023/08/14 04:24:01;;;;;;;0.20;0.10;;;;;;;;;;5048253;28;20896;-81
2023/08/14 04:26:27;;;;;;;0.30;0.30;;;;;;;;;;5038670;28;20036;-80
2023/08/14 04:28:53;;;;;;;0.20;0.00;;;;;;;;;;5040695;28;20051;-81
2023/08/14 04:31:19;;;;;;;0.20;0.00;;;;;;;;;;5044069;28;20037;-82
2023/08/14 04:33:45;;;;;;;0.20;0.10;;;;;;;;;;5044757;28;20044;-81
2023/08/14 04:36:11;;;;;;;0.20;0.10;;;;;;;;;;5049227;28;20114;-82
2023/08/14 04:38:37;;;;;;;0.40;0.32;;;;;;;;;;5033083;28;20048;-82
2023/08/14 04:41:03;;;;;;;0.30;0.10;;;;;;;;;;5033976;28;20041;-81
2023/08/14 04:43:31;;;;;;;0.20;0.10;;;;;;;;;;5045379;28;20313;-82
2023/08/14 04:45:57;;;;;;;0.20;0.10;;;;;;;;;;5039045;28;20037;-81
2023/08/14 04:48:23;;;;;;;0.32;0.10;;;;;;;;;;5045478;28;20047;-82
2023/08/14 04:50:50;;;;;;;0.30;0.30;;;;;;;;;;5044110;28;20759;-82
2023/08/14 04:53:16;;;;;;;0.22;0.20;;;;;;;;;;5042316;28;20033;-81
2023/08/14 04:55:42;;;;;;;0.20;0.15;;;;;;;;;;5033307;28;20056;-82
2023/08/14 04:58:08;;;;;;;0.22;0.13;;;;;;;;;;5027975;28;20033;-81
2023/08/14 05:00:34;;;;;;;0.20;0.10;;;;;;;;;;5027256;28;20064;-81
2023/08/14 05:03:00;;;;;;;0.30;0.30;;;;;;;;;;5034385;28;20623;-81
2023/08/14 05:05:26;;;;;;;0.22;0.10;;;;;;;;;;5044582;28;20573;-81
2023/08/14 05:07:52;;;;;;;0.60;0.55;;;;;;;;;;5038055;28;21982;-81
2023/08/14 05:10:18;;;;;;;0.98;0.63;;;;;;;;;;5038229;28;20079;-81
2023/08/14 05:12:44;;;;;;;0.20;0.03;;;;;;;;;;5021153;28;20078;-82
2023/08/14 05:15:10;;;;;;;0.30;0.25;;;;;;;;;;5034550;28;20037;-81
2023/08/14 05:17:37;;;;;;;0.20;0.10;;;;;;;;;;5015930;28;20036;-82
2023/08/14 05:20:03;;;;;;;0.32;0.25;;;;;;;;;;5024994;28;20511;-82
2023/08/14 05:22:29;;;;;;;0.30;0.25;;;;;;;;;;5015289;28;20247;-80
2023/08/14 05:24:55;;;;;;;0.55;0.55;;;;;;;;;;5025946;28;20052;-80
2023/08/14 05:27:21;;;;;;;0.30;0.20;;;;;;;;;;5027325;28;20044;-80
2023/08/14 05:29:47;;;;;;;0.20;0.10;;;;;;;;;;5022007;28;20048;-81
2023/08/14 05:32:13;;;;;;;0.30;0.30;;;;;;;;;;5042420;28;20045;-82
2023/08/14 05:34:39;;;;;;;0.73;0.30;;;;;;;;;;5022291;28;20033;-82
2023/08/14 05:37:06;;;;;;;0.20;0.10;;;;;;;;;;5040147;28;20056;-83
2023/08/14 05:39:32;;;;;;;0.77;0.30;;;;;;;;;;5039948;28;20046;-81
2023/08/14 05:41:58;;;;;;;0.20;0.20;;;;;;;;;;5038837;28;20068;-81
2023/08/14 05:44:24;;;;;;;0.20;0.10;;;;;;;;;;5034639;28;20060;-81
2023/08/14 05:46:50;;;;;;;0.38;0.20;;;;;;;;;;5036120;28;20241;-80
2023/08/14 05:49:16;;;;;;;0.20;0.10;;;;;;;;;;5030799;28;20036;-82
2023/08/14 05:51:43;;;;;;;0.20;0.13;;;;;;;;;;5010319;28;20048;-82
2023/08/14 05:54:09;;;;;;;0.20;0.10;;;;;;;;;;5020938;28;20071;-81
2023/08/14 05:56:35;;;;;;;0.20;0.10;;;;;;;;;;5029306;28;20079;-80
2023/08/14 05:59:01;;;;;;;0.20;0.10;;;;;;;;;;5026161;28;20044;-81
2023/08/14 06:01:27;;;;;;;0.20;0.10;;;;;;;;;;5048860;28;20036;-80
2023/08/14 06:03:54;;;;;;;0.45;0.30;;;;;;;;;;5037660;28;20039;-80
2023/08/14 06:06:20;;;;;;;0.20;0.10;;;;;;;;;;5022405;28;20056;-80
2023/08/14 06:08:46;;;;;;;0.20;0.10;;;;;;;;;;5044304;28;20040;-79
2023/08/14 06:11:12;;;;;;;0.20;0.10;;;;;;;;;;5040553;28;20036;-80
2023/08/14 06:13:38;;;;;;;0.20;0.20;;;;;;;;;;5026435;28;20037;-79
2023/08/14 06:16:04;;;;;;;0.20;0.10;;;;;;;;;;5044098;28;20108;-80
2023/08/14 06:18:30;;;;;;;0.20;0.15;;;;;;;;;;5036653;28;20032;-81
2023/08/14 06:20:56;;;;;;;0.20;0.05;;;;;;;;;;5046561;28;20036;-81
2023/08/14 06:23:22;;;;;;;0.20;0.10;;;;;;;;;;5038510;28;20024;-80
2023/08/14 06:25:49;;;;;;;0.20;0.10;;;;;;;;;;5042977;28;20048;-80
2023/08/14 06:28:15;;;;;;;0.20;0.10;;;;;;;;;;5047880;28;20032;-80
2023/08/14 06:30:41;;;;;;;0.20;0.08;;;;;;;;;;5022474;28;20055;-81
2023/08/14 06:33:07;;;;;;;0.73;0.57;;;;;;;;;;5022720;28;20055;-80
2023/08/14 06:35:33;;;;;;;0.22;0.10;;;;;;;;;;5026930;28;20032;-81
2023/08/14 06:37:59;;;;;;;0.20;0.10;;;;;;;;;;5019474;28;20038;-81
2023/08/14 06:40:25;;;;;;;0.20;0.20;;;;;;;;;;5022973;28;20053;-81
2023/08/14 06:42:52;;;;;;;0.20;0.00;;;;;;;;;;5039928;28;20043;-79
2023/08/14 06:45:18;;;;;;;0.20;0.10;;;;;;;;;;5022787;28;20044;-81
2023/08/14 06:47:45;;;;;;;0.20;0.00;;;;;;;;;;5026135;28;20405;-81
2023/08/14 06:50:12;;;;;;;0.20;0.15;;;;;;;;;;5030011;28;20040;-79
2023/08/14 06:52:38;;;;;;;0.20;0.10;;;;;;;;;;5024722;28;20410;-81
2023/08/14 06:55:05;;;;;;;0.20;0.10;;;;;;;;;;5042005;28;20072;-81
2023/08/14 06:57:31;;;;;;;0.20;0.20;;;;;;;;;;5031667;28;20470;-80
2023/08/14 06:59:57;;;;;;;0.20;0.17;;;;;;;;;;5035137;28;20114;-80
2023/08/14 07:02:23;;;;;;;0.20;0.05;;;;;;;;;;5036292;28;20040;-79
2023/08/14 07:04:50;;;;;;;0.20;0.00;;;;;;;;;;5013201;28;20044;-81
2023/08/14 07:07:16;;;;;;;0.20;0.10;;;;;;;;;;5018958;28;20417;-80
2023/08/14 07:09:42;;;;;;;0.20;0.10;;;;;;;;;;5021020;28;20481;-81
2023/08/14 07:12:08;;;;;;;0.20;0.10;;;;;;;;;;5027985;28;20043;-80
2023/08/14 07:14:34;;;;;;;0.20;0.10;;;;;;;;;;5036319;28;20041;-81
2023/08/14 07:17:00;;;;;;;0.20;0.00;;;;;;;;;;5027436;28;20087;-81
2023/08/14 07:19:26;;;;;;;0.20;0.10;;;;;;;;;;5029557;28;20028;-80
2023/08/14 07:21:52;;;;;;;0.30;0.30;;;;;;;;;;5033779;28;20045;-81
2023/08/14 07:24:18;;;;;;;0.20;0.10;;;;;;;;;;5031922;28;20044;-81
2023/08/14 07:26:44;;;;;;;0.20;0.10;;;;;;;;;;5041003;28;20036;-81
2023/08/14 07:29:10;;;;;;;0.20;0.10;;;;;;;;;;5040031;28;20594;-81
2023/08/14 07:31:36;;;;;;;0.20;0.10;;;;;;;;;;5044791;28;20044;-81
2023/08/14 07:34:02;;;;;;;0.20;0.10;;;;;;;;;;5026145;28;20040;-80
2023/08/14 07:36:28;;;;;;;0.20;0.10;;;;;;;;;;5042211;28;20071;-81
2023/08/14 07:38:54;;;;;;;0.73;0.28;;;;;;;;;;5035911;28;20044;-80
2023/08/14 07:41:20;;;;;;;0.20;0.15;;;;;;;;;;5017943;28;20040;-82
2023/08/14 07:43:46;;;;;;;0.20;0.10;;;;;;;;;;5038680;28;20040;-83
2023/08/14 07:46:12;;;;;;;0.25;0.15;;;;;;;;;;5029119;28;20028;-80
2023/08/14 07:48:38;;;;;;;0.30;0.10;;;;;;;;;;5032775;28;20141;-81
2023/08/14 07:51:04;;;;;;;0.20;0.10;;;;;;;;;;5032122;28;20037;-83
2023/08/14 07:53:30;;;;;;;0.20;0.10;;;;;;;;;;5023247;28;20048;-82
2023/08/14 07:55:56;;;;;;;0.20;0.10;;;;;;;;;;5030445;28;20035;-82
2023/08/14 07:58:22;;;;;;;0.60;0.30;;;;;;;;;;5030625;28;20047;-81
2023/08/14 08:00:48;;;;;;;0.20;0.10;;;;;;;;;;5021882;28;20041;-83
2023/08/14 08:03:14;;;;;;;0.20;0.10;;;;;;;;;;5031658;28;20318;-83
2023/08/14 08:05:40;;;;;;;0.20;0.10;;;;;;;;;;5019881;28;20048;-81
2023/08/14 08:08:07;;;;;;;1.60;1.50;;;;;;;;;;5039261;28;20040;-84
2023/08/14 08:10:33;;;;;;;0.85;0.57;;;;;;;;;;5038992;28;20049;-82
2023/08/14 08:12:59;;;;;;;0.20;0.10;;;;;;;;;;5038299;28;20079;-82
2023/08/14 08:15:25;;;;;;;0.20;0.10;;;;;;;;;;5041242;28;20043;-83
2023/08/14 08:17:51;;;;;;;0.40;0.28;;;;;;;;;;5024318;28;20578;-84
2023/08/14 08:20:17;;;;;;;0.20;0.10;;;;;;;;;;5020035;28;20559;-86
2023/08/14 08:22:43;;;;;;;0.20;0.10;;;;;;;;;;5020475;28;20095;-83
2023/08/14 08:25:09;;;;;;;0.30;0.10;;;;;;;;;;5030154;28;20098;-82
2023/08/14 08:27:35;;;;;;;0.20;0.10;;;;;;;;;;5017320;28;20044;-83
2023/08/14 08:30:02;;;;;;;0.20;0.15;;;;;;;;;;5024207;28;20053;-83
2023/08/14 08:32:28;;;;;;;0.20;0.10;;;;;;;;;;5038634;28;20481;-83
2023/08/14 08:34:54;;;;;;;0.20;0.10;;;;;;;;;;5036829;28;20069;-82
2023/08/14 08:37:20;;;;;;;0.20;0.10;;;;;;;;;;5038068;28;20372;-85
2023/08/14 08:39:46;;;;;;;0.20;0.10;;;;;;;;;;5036275;28;20040;-85
2023/08/14 08:42:13;;;;;;;0.20;0.10;;;;;;;;;;5015579;28;20121;-82
2023/08/14 08:44:44;;;;;;;0.20;0.10;;;;;;;;;;5020013;28;20051;-82
2023/08/14 08:47:11;;;;;;;0.20;0.10;;;;;;;;;;5034726;28;20067;-84
2023/08/14 08:49:39;;;;;;;0.20;0.10;;;;;;;;;;5023013;28;20105;-84
2023/08/14 08:52:06;;;;;;;0.25;0.15;;;;;;;;;;5021944;28;20090;-83
2023/08/14 08:54:32;;;;;;;0.20;0.10;;;;;;;;;;5033015;28;20520;-84
2023/08/14 08:56:59;;;;;;;0.20;0.10;;;;;;;;;;5020216;28;20144;-84
2023/08/14 08:59:25;;;;;;;0.20;0.10;;;;;;;;;;5034292;28;20408;-84
2023/08/14 09:01:51;;;;;;;0.20;0.10;;;;;;;;;;5034580;28;20085;-86
2023/08/14 09:04:18;;;;;;;0.20;0.15;;;;;;;;;;5022514;28;20056;-82
2023/08/14 09:06:44;;;;;;;0.30;0.20;;;;;;;;;;5029865;28;20463;-83
2023/08/14 09:09:12;;;;;;;0.28;0.10;;;;;;;;;;5019081;28;20078;-82
2023/08/14 09:11:38;;;;;;;0.20;0.13;;;;;;;;;;5032894;28;20390;-81
2023/08/14 09:14:04;;;;;;;0.20;0.10;;;;;;;;;;5022256;28;20029;-84
2023/08/14 09:16:30;;;;;;;0.20;0.10;;;;;;;;;;5034176;28;20037;-83
2023/08/14 09:19:00;;;;;;;0.20;0.00;;;;;;;;;;5033790;23;20441;-85
2023/08/14 09:21:32;;;;;;;0.20;0.10;;;;;;;;;;4991797;28;20044;-86
2023/08/14 09:24:19;;;;;;;0.20;0.10;;;;;;;;;;4979692;28;20132;-84
2023/08/14 09:26:54;;;;;;;0.20;0.10;;;;;;;;;;4992396;28;20714;-84
2023/08/14 09:29:20;;;;;;;0.20;0.15;;;;;;;;;;4994305;28;20042;-85
2023/08/14 09:31:46;;;;;;;0.20;0.10;;;;;;;;;;4973453;28;20038;-83
2023/08/14 09:34:17;;;;;;;0.20;0.10;;;;;;;;;;4974908;28;20136;-86
2023/08/14 09:36:43;;;;;;;0.20;0.10;;;;;;;;;;4982501;28;20298;-85
2023/08/14 09:39:12;;;;;;;0.20;0.00;;;;;;;;;;4979927;28;20029;-84
2023/08/14 09:41:45;;;;;;;0.20;0.10;;;;;;;;;;4987678;28;20125;-86
2023/08/14 09:44:14;;;;;;;0.20;0.10;;;;;;;;;;4996267;28;20033;-82
2023/08/14 09:46:43;;;;;;;0.20;0.13;;;;;;;;;;4971011;28;20548;-86
2023/08/14 09:49:17;;;;;;;0.60;0.20;;;;;;;;;;4981032;28;20034;-84
2023/08/14 09:51:55;;;;;;;0.20;0.10;;;;;;;;;;4973031;28;20120;-84
2023/08/14 09:54:32;;;;;;;0.20;0.00;;;;;;;;;;4991533;28;20034;-87
2023/08/14 09:56:59;;;;;;;0.28;0.15;;;;;;;;;;4971934;28;20048;-87
2023/08/14 09:59:26;;;;;;;0.20;0.10;;;;;;;;;;4980565;28;20041;-85
2023/08/14 10:01:58;;;;;;;0.20;0.05;;;;;;;;;;4982361;28;20034;-86
2023/08/14 10:04:24;;;;;;;;;;;;;;;;;;4983461;28;20045;-86
2023/08/14 10:06:54;;;;;;;0.20;0.10;;;;;;;;;;4987348;28;19917;-84
2023/08/14 10:09:22;;;;;;;0.20;0.10;;;;;;;;;;4979618;28;20034;-82
2023/08/14 10:11:49;;;;;;;0.20;0.05;;;;;;;;;;5007163;28;20510;-84
2023/08/14 10:14:15;;;;;;;0.20;0.10;;;;;;;;;;4990506;28;20033;-83
2023/08/14 10:16:42;;;;;;;0.20;0.10;;;;;;;;;;4983367;28;20125;-83
2023/08/14 10:19:13;;;;;;;0.20;0.10;;;;;;;;;;4975870;28;20487;-85
2023/08/14 10:21:40;;;;;;;0.20;0.10;;;;;;;;;;4980111;28;20095;-84
2023/08/14 10:24:07;;;;;;;0.20;0.10;;;;;;;;;;4969657;28;20065;-85
2023/08/14 10:26:34;;;;;;;0.20;0.10;;;;;;;;;;4980293;28;20045;-84
2023/08/14 10:29:00;;;;;;;0.20;0.10;;;;;;;;;;4981748;28;20065;-84
2023/08/14 10:31:30;;;;;;;0.20;0.10;;;;;;;;;;4985571;28;20050;-83
2023/08/14 10:33:57;;;;;;;0.30;0.20;;;;;;;;;;4973885;28;20096;-84
2023/08/14 10:36:26;;;;;;;0.20;0.10;;;;;;;;;;4975177;28;20053;-88
2023/08/14 10:38:52;;;;;;;0.20;0.10;;;;;;;;;;4968849;28;20511;-84
2023/08/14 10:41:19;;;;;;;0.20;0.10;;;;;;;;;;4984568;28;20042;-83
2023/08/14 10:43:51;;;;;;;1.80;0.40;;;;;;;;;;4975291;28;20045;-83
2023/08/14 10:46:17;;;;;;;;;;;;;;;;;;4973297;28;20503;-82
2023/08/14 10:48:44;;;;;;;0.20;0.10;;;;;;;;;;4991982;28;19984;-82
2023/08/14 10:51:12;;;;;;;0.20;0.10;;;;;;;;;;5002162;28;20558;-83
2023/08/14 10:53:40;;;;;;;0.20;0.10;;;;;;;;;;4988971;28;20167;-83
2023/08/14 10:56:10;;;;;;;0.20;0.10;;;;;;;;;;4971624;28;20045;-84
2023/08/14 10:58:37;;;;;;;0.20;0.10;;;;;;;;;;4987015;28;20426;-84
2023/08/14 11:01:05;;;;;;;0.20;0.10;;;;;;;;;;4973503;28;20116;-82
2023/08/14 11:03:54;;;;;;;0.20;0.00;;;;;;;;;;4994758;28;20064;-84
2023/08/14 11:06:24;;;;;;;0.20;0.00;;;;;;;;;;4985915;28;20042;-84
2023/08/14 11:08:56;;;;;;;0.20;0.10;;;;;;;;;;4981554;28;20383;-83
2023/08/14 11:11:31;;;;;;;0.20;0.10;;;;;;;;;;4974041;28;20052;-86
2023/08/14 11:13:59;;;;;;;0.20;0.10;;;;;;;;;;4975175;28;20056;-82
2023/08/14 11:16:25;;;;;;;0.20;0.10;;;;;;;;;;4992743;28;20091;-84
2023/08/14 11:18:52;;;;;;;0.20;0.10;;;;;;;;;;4982445;28;20072;-84
2023/08/14 11:21:18;;;;;;;0.20;0.10;;;;;;;;;;4988189;28;20128;-85
2023/08/14 11:23:46;;;;;;;0.30;0.10;;;;;;;;;;4973133;28;20055;-85
2023/08/14 11:26:12;;;;;;;0.20;0.10;;;;;;;;;;4977855;28;20041;-85
2023/08/14 11:28:39;;;;;;;0.20;0.10;;;;;;;;;;4971848;28;20512;-84
2023/08/14 11:31:05;;;;;;;0.30;0.10;;;;;;;;;;4983524;28;20073;-86
2023/08/14 11:33:36;;;;;;;0.20;0.10;;;;;;;;;;4982981;28;20109;-84
2023/08/14 11:36:06;;;;;;;0.20;0.05;;;;;;;;;;5002069;28;20474;-83
2023/08/14 11:38:33;;;;;;;0.20;0.10;;;;;;;;;;5058733;23;20522;-85
2023/08/14 11:41:01;;;;;;;0.20;0.10;;;;;;;;;;5017524;28;20049;-83
2023/08/14 11:43:28;;;;;;;0.20;0.10;;;;;;;;;;5012470;28;20521;-82
2023/08/14 11:45:57;;;;;;;0.20;0.10;;;;;;;;;;5030165;28;20563;-82
2023/08/14 11:48:29;;;;;;;0.20;0.10;;;;;;;;;;5018677;28;20053;-83
2023/08/14 11:51:14;;;;;;;0.20;0.10;;;;;;;;;;5051882;28;20570;-82
2023/08/14 11:53:41;;;;;;;0.20;0.00;;;;;;;;;;5011661;28;20365;-84
2023/08/14 11:56:13;;;;;;;0.20;0.10;;;;;;;;;;5029827;28;20403;-85
2023/08/14 11:58:48;;;;;;;0.22;0.10;;;;;;;;;;5031874;28;20406;-83
2023/08/14 12:01:17;;;;;;;0.20;0.10;;;;;;;;;;5028840;28;20071;-84
2023/08/14 12:03:49;;;;;;;0.20;0.10;;;;;;;;;;5035693;28;20157;-85
2023/08/14 12:06:18;;;;;;;0.20;0.15;;;;;;;;;;5033998;28;20128;-86
2023/08/14 12:08:47;;;;;;;0.20;0.00;;;;;;;;;;5031919;28;20095;-85
2023/08/14 12:11:22;;;;;;;0.73;0.35;;;;;;;;;;5033403;28;20497;-84
2023/08/14 12:14:11;;;;;;;;;;;;;;;;;;;;;
2023/08/14 12:16:45;;;;;;;0.20;0.10;;;;;;;;;;5051558;28;20056;-84
2023/08/14 12:19:12;;;;;;;0.30;0.20;;;;;;;;;;5027550;28;20360;-85
2023/08/14 12:21:44;;;;;;;0.20;0.10;;;;;;;;;;5033444;28;20303;-84
2023/08/14 12:24:17;;;;;;;0.20;0.10;;;;;;;;;;5018135;28;20063;-85
2023/08/14 12:26:44;;;;;;;0.50;0.30;;;;;;;;;;5033013;28;20033;-84
2023/08/14 12:29:15;;;;;;;0.82;0.17;;;;;;;;;;5030182;28;20089;-85
2023/08/14 12:31:41;;;;;;;0.20;0.10;;;;;;;;;;5033873;28;20036;-86
2023/08/14 12:34:07;;;;;;;0.20;0.10;;;;;;;;;;5032525;28;20128;-83
2023/08/14 12:36:36;;;;;;;0.20;0.13;;;;;;;;;;5033354;28;20038;-83
2023/08/14 12:39:02;;;;;;;0.20;0.10;;;;;;;;;;5034335;28;20033;-84
2023/08/14 12:44:46;;;;;;;0.20;0.10;;;;;;;;;;5028458;28;20581;-82
2023/08/14 12:47:12;;;;;;;0.20;0.10;;;;;;;;;;5018033;28;20499;-85
2023/08/14 12:49:58;;;;;;;0.20;0.10;;;;;;;;;;5021802;28;20040;-87
2023/08/14 12:52:27;;;;;;;0.20;0.10;;;;;;;;;;5031434;28;20397;-84
2023/08/14 12:54:53;;;;;;;0.20;0.10;;;;;;;;;;5013758;28;20040;-83
2023/08/14 12:57:19;;;;;;;0.20;0.10;;;;;;;;;;5033901;28;20446;-84
2023/08/14 12:59:45;;;;;;;0.20;0.10;;;;;;;;;;5033389;28;20045;-85
2023/08/14 13:02:11;;;;;;;0.30;0.20;;;;;;;;;;5027072;28;20049;-85
2023/08/14 13:04:37;;;;;;;0.20;0.10;;;;;;;;;;5036660;28;20456;-83
2023/08/14 13:07:06;;;;;;;0.20;0.10;;;;;;;;;;5034832;28;20498;-85
2023/08/14 13:09:32;;;;;;;0.20;0.10;;;;;;;;;;5031324;28;20139;-83
2023/08/14 13:12:11;;;;;;;0.20;0.10;;;;;;;;;;5035382;28;20040;-83
2023/08/14 13:14:46;;;;;;;0.60;0.20;;;;;;;;;;5018641;28;20337;-86
2023/08/14 13:17:12;;;;;;;0.20;0.17;;;;;;;;;;5012161;28;20078;-84
2023/08/14 13:19:41;;;;;;;0.20;0.10;;;;;;;;;;5030052;28;20049;-85
2023/08/14 13:22:07;;;;;;;0.20;0.10;;;;;;;;;;5021010;28;20037;-83
2023/08/14 13:24:46;;;;;;;;;;;;;;;;;;;;;
2023/08/14 13:27:21;;;;;;;0.28;0.10;;;;;;;;;;5034246;28;20120;-85
2023/08/14 13:29:47;;;;;;;;;;;;;;;;;;5016743;28;20500;-83
2023/08/14 13:32:16;;;;;;;0.20;0.10;;;;;;;;;;5028102;28;20910;-84
2023/08/14 13:34:45;;;;;;;0.20;0.10;;;;;;;;;;5012991;28;20298;-83
2023/08/14 13:37:11;;;;;;;0.20;0.10;;;;;;;;;;5019453;28;20147;-82
2023/08/14 13:39:40;;;;;;;0.20;0.13;;;;;;;;;;5050989;28;20044;-84
2023/08/14 13:42:12;;;;;;;0.40;0.22;;;;;;;;;;5032458;28;20052;-83
2023/08/14 13:44:43;;;;;;;0.20;0.00;;;;;;;;;;5021237;28;20033;-83
2023/08/14 13:47:09;;;;;;;0.20;0.10;;;;;;;;;;5035671;28;20501;-85
2023/08/14 13:49:35;;;;;;;0.20;0.10;;;;;;;;;;5030864;28;20598;-83
2023/08/14 13:52:10;;;;;;;0.20;0.10;;;;;;;;;;5033025;28;20037;-83
2023/08/14 13:54:39;;;;;;;0.20;0.00;;;;;;;;;;5016193;28;20045;-82
2023/08/14 13:57:08;;;;;;;0.20;0.10;;;;;;;;;;5030884;28;20041;-82
2023/08/14 13:59:52;;;;;;;0.20;0.05;;;;;;;;;;5031756;28;20325;-82
2023/08/14 14:02:24;;;;;;;0.30;0.20;;;;;;;;;;5016892;28;20327;-85
2023/08/14 14:04:52;;;;;;;0.20;0.10;;;;;;;;;;5023667;28;20126;-85
2023/08/14 14:07:27;;;;;;;0.20;0.10;;;;;;;;;;5025722;28;20279;-85
2023/08/14 14:09:53;;;;;;;0.20;0.10;;;;;;;;;;5050987;28;20045;-84
2023/08/14 14:12:30;;;;;;;0.30;0.20;;;;;;;;;;5033285;28;20049;-86
2023/08/14 14:14:56;;;;;;;0.20;0.10;;;;;;;;;;5038402;28;20041;-83
2023/08/14 14:17:31;;;;;;;0.28;0.20;;;;;;;;;;5027738;28;20455;-84
2023/08/14 14:20:04;;;;;;;0.20;0.10;;;;;;;;;;5021347;28;20037;-82
2023/08/14 14:22:39;;;;;;;0.20;0.10;;;;;;;;;;5028459;28;20048;-85
2023/08/14 14:25:08;;;;;;;0.20;0.10;;;;;;;;;;5009740;28;20056;-83
2023/08/14 14:27:49;;;;;;;0.20;0.10;;;;;;;;;;5029786;28;20045;-83
2023/08/14 14:30:16;;;;;;;0.20;0.10;;;;;;;;;;5053116;28;20139;-84
2023/08/14 14:32:44;;;;;;;0.20;0.10;;;;;;;;;;5037478;28;20203;-83
2023/08/14 14:35:13;;;;;;;0.20;0.10;;;;;;;;;;5040643;28;20036;-82
2023/08/14 14:37:42;;;;;;;;;;;;;;;;;;5028087;28;20554;-84
2023/08/14 14:43:09;;;;;;;0.20;0.10;;;;;;;;;;5019632;28;20068;-84
2023/08/14 14:45:40;;;;;;;0.20;0.10;;;;;;;;;;5036413;28;20041;-83
2023/08/14 14:48:16;;;;;;;0.20;0.10;;;;;;;;;;5038452;28;20343;-82
2023/08/14 14:50:57;;;;;;;0.20;0.10;;;;;;;;;;5040443;28;20051;-83
2023/08/14 14:53:23;;;;;;;0.20;0.10;;;;;;;;;;5021624;28;20036;-82
2023/08/14 14:55:59;;;;;;;0.20;0.10;;;;;;;;;;5021065;28;20290;-84
2023/08/14 14:58:28;;;;;;;0.20;0.10;;;;;;;;;;5033793;28;20078;-83
2023/08/14 15:00:54;;;;;;;0.20;0.10;;;;;;;;;;5026319;28;20071;-83
2023/08/14 15:03:20;;;;;;;0.20;0.10;;;;;;;;;;5048374;28;20040;-82
2023/08/14 15:06:01;;;;;;;0.20;0.10;;;;;;;;;;5038124;28;20044;-82
2023/08/14 15:08:33;;;;;;;0.20;0.10;;;;;;;;;;5037983;28;20072;-85
2023/08/14 15:11:01;;;;;;;0.28;0.20;;;;;;;;;;5052084;28;20516;-82
2023/08/14 15:13:39;;;;;;;0.30;0.20;;;;;;;;;;5034679;28;20094;-82
2023/08/14 15:16:05;;;;;;;0.20;0.10;;;;;;;;;;5030713;28;20065;-82
2023/08/14 15:18:34;;;;;;;0.20;0.10;;;;;;;;;;5047875;22;20060;-78
2023/08/14 15:21:00;;;;;;;0.20;0.10;;;;;;;;;;5037412;28;20033;-77
2023/08/14 15:23:26;;;;;;;0.22;0.20;;;;;;;;;;5043381;28;20032;-79
2023/08/14 15:25:52;;;;;;;0.20;0.10;;;;;;;;;;5024611;28;20082;-78
2023/08/14 15:28:19;;;;;;;0.20;0.10;;;;;;;;;;5029571;28;20045;-78
2023/08/14 15:30:45;;;;;;;0.20;0.10;;;;;;;;;;5043849;28;20052;-78
2023/08/14 15:33:11;;;;;;;0.20;0.10;;;;;;;;;;5045389;28;20058;-78
2023/08/14 15:35:37;;;;;;;0.20;0.10;;;;;;;;;;5030076;28;20044;-79
2023/08/14 15:38:03;;;;;;;0.20;0.10;;;;;;;;;;5025173;28;20036;-78
2023/08/14 15:40:30;;;;;;;1.95;0.20;;;;;;;;;;5019014;28;20036;-82
2023/08/14 15:42:56;;;;;;;0.20;0.10;;;;;;;;;;5019443;28;20545;-78
2023/08/14 15:45:22;;;;;;;0.20;0.10;;;;;;;;;;5017320;28;20033;-78
2023/08/14 15:47:48;;;;;;;0.20;0.10;;;;;;;;;;5034633;28;20051;-79
2023/08/14 15:50:14;;;;;;;0.20;0.10;;;;;;;;;;5024770;28;20124;-78
2023/08/14 15:52:40;;;;;;;0.20;0.10;;;;;;;;;;5037160;28;20040;-78
2023/08/14 15:55:07;;;;;;;0.60;0.32;;;;;;;;;;5023390;28;20036;-79
2023/08/14 15:57:34;;;;;;;0.20;0.10;;;;;;;;;;5025500;28;20586;-77
2023/08/14 16:00:02;;;;;;;0.20;0.10;;;;;;;;;;5019305;28;20043;-78
2023/08/14 16:02:28;;;;;;;0.20;0.10;;;;;;;;;;5025164;28;20029;-78
2023/08/14 16:04:54;;;;;;;0.20;0.10;;;;;;;;;;5042704;28;20037;-79
2023/08/14 16:07:22;;;;;;;0.20;0.10;;;;;;;;;;5039696;28;20097;-78
2023/08/14 16:09:49;;;;;;;0.22;0.10;;;;;;;;;;5033761;28;20058;-79
2023/08/14 16:12:17;;;;;;;0.20;0.10;;;;;;;;;;5022059;28;20045;-78
2023/08/14 16:14:43;;;;;;;0.30;0.20;;;;;;;;;;5020376;28;24284;-78
2023/08/14 16:17:10;;;;;;;0.28;0.10;;;;;;;;;;5033917;28;20056;-78
2023/08/14 16:19:36;;;;;;;0.28;0.17;;;;;;;;;;5016087;28;20044;-78
2023/08/14 16:22:02;;;;;;;0.20;0.10;;;;;;;;;;5045476;28;20037;-80
2023/08/14 16:24:28;;;;;;;0.20;0.10;;;;;;;;;;5036923;28;20133;-79
2023/08/14 16:26:54;;;;;;;0.20;0.10;;;;;;;;;;5037480;28;20270;-78
2023/08/14 16:29:24;;;;;;;0.20;0.10;;;;;;;;;;5026809;28;20226;-79
2023/08/14 16:31:50;;;;;;;0.20;0.10;;;;;;;;;;5030126;28;20349;-78
2023/08/14 16:34:16;;;;;;;0.30;0.20;;;;;;;;;;5011025;28;20055;-78
2023/08/14 16:36:42;;;;;;;0.20;0.10;;;;;;;;;;5027379;28;20036;-80
2023/08/14 16:39:08;;;;;;;0.20;0.10;;;;;;;;;;5028188;28;20041;-78
2023/08/14 16:41:34;;;;;;;0.20;0.10;;;;;;;;;;5028260;28;20042;-78
2023/08/14 16:44:00;;;;;;;0.20;0.00;;;;;;;;;;5041699;28;20036;-79
2023/08/14 16:46:26;;;;;;;0.20;0.10;;;;;;;;;;5027126;28;20062;-77
2023/08/14 16:48:53;;;;;;;0.20;0.10;;;;;;;;;;5029784;28;20571;-78
2023/08/14 16:51:19;;;;;;;0.25;0.15;;;;;;;;;;5048465;28;20131;-78
2023/08/14 16:53:45;;;;;;;0.20;0.10;;;;;;;;;;5020483;28;20044;-78
2023/08/14 16:56:11;;;;;;;0.20;0.10;;;;;;;;;;5043916;28;20079;-78
2023/08/14 16:58:37;;;;;;;0.20;0.10;;;;;;;;;;5025508;28;20319;-78
2023/08/14 17:01:03;;;;;;;0.20;0.10;;;;;;;;;;5026989;28;20047;-79
2023/08/14 17:03:29;;;;;;;0.30;0.13;;;;;;;;;;5025085;28;20279;-78
2023/08/14 17:05:59;;;;;;;0.20;0.10;;;;;;;;;;5046008;28;20040;-81
2023/08/14 17:08:25;;;;;;;0.20;0.10;;;;;;;;;;5048925;28;20040;-79
2023/08/14 17:10:51;;;;;;;0.20;0.10;;;;;;;;;;5021505;28;20047;-79
2023/08/14 17:13:17;;;;;;;0.20;0.10;;;;;;;;;;5033843;28;20036;-78
2023/08/14 17:15:44;;;;;;;0.20;0.10;;;;;;;;;;5047994;28;20094;-79
2023/08/14 17:18:10;;;;;;;0.20;0.10;;;;;;;;;;5027289;28;20037;-78
2023/08/14 17:20:36;;;;;;;0.20;0.10;;;;;;;;;;5025882;28;20076;-78
2023/08/14 17:23:02;;;;;;;0.20;0.20;;;;;;;;;;5024533;28;20093;-79
2023/08/14 17:25:28;;;;;;;0.20;0.10;;;;;;;;;;5027482;28;20138;-79
2023/08/14 17:27:54;;;;;;;0.20;0.10;;;;;;;;;;5048346;28;20036;-79
2023/08/14 17:30:20;;;;;;;0.20;0.10;;;;;;;;;;5030541;28;20041;-79
2023/08/14 17:32:49;;;;;;;0.30;0.25;;;;;;;;;;5046998;28;20163;-78
2023/08/14 17:35:15;;;;;;;0.20;0.10;;;;;;;;;;5033655;28;20052;-78
2023/08/14 17:37:41;;;;;;;0.20;0.10;;;;;;;;;;5046036;28;20476;-78
2023/08/14 17:40:07;;;;;;;0.20;0.10;;;;;;;;;;5043705;28;20074;-78
2023/08/14 17:42:33;;;;;;;0.20;0.10;;;;;;;;;;5028122;28;20040;-78
2023/08/14 17:44:59;;;;;;;0.20;0.10;;;;;;;;;;5033878;28;20044;-79
2023/08/14 17:47:28;;;;;;;0.20;0.10;;;;;;;;;;5038346;28;20036;-79
2023/08/14 17:49:54;;;;;;;0.20;0.10;;;;;;;;;;5026606;28;20047;-78
2023/08/14 17:52:20;;;;;;;0.20;0.10;;;;;;;;;;5028153;28;20040;-78
2023/08/14 17:54:46;;;;;;;0.20;0.10;;;;;;;;;;5053117;28;20059;-79
2023/08/14 17:57:12;;;;;;;0.20;0.10;;;;;;;;;;5033808;28;20036;-79
2023/08/14 17:59:38;;;;;;;0.95;0.20;;;;;;;;;;5037239;28;20048;-79
2023/08/14 18:02:04;;;;;;;0.20;0.10;;;;;;;;;;5053086;28;20045;-79
2023/08/14 18:04:30;;;;;;;0.20;0.10;;;;;;;;;;5034338;28;20037;-78
2023/08/14 18:06:56;;;;;;;0.30;0.30;;;;;;;;;;5036426;28;20488;-79
2023/08/14 18:09:22;;;;;;;0.20;0.10;;;;;;;;;;5026195;28;20075;-79